Time;durP1;ratioP1;P1;durP2;ratioP2;P2;SDS_P1;SDS_P2;PMS_P1;PMS_P2;Temp;Humidity;BMP_temperature;BMP_pressure;BME280_temperature;BME280_humidity;BME280_pressure;Samples;Min_cycle;Max_cycle;Signal;HPM_P1;HPM_P2
2022/02/12 00:00:24;;;;;;;10.00;4.83;;;3.50;1.00;;;;;;5053886;28;20305;-60
2022/02/12 00:02:53;;;;;;;15.47;5.17;;;3.40;1.00;;;;;;5076284;28;20298;-57
2022/02/12 00:05:24;;;;;;;13.30;5.33;;;3.40;1.00;;;;;;5068453;28;20214;-58
2022/02/12 00:07:54;;;;;;;9.80;4.13;;;3.30;1.00;;;;;;5073245;28;20229;-59
2022/02/12 00:10:21;;;;;;;9.17;4.77;;;3.30;1.00;;;;;;5075234;28;20228;-57
2022/02/12 00:12:49;;;;;;;10.33;4.83;;;3.10;1.00;;;;;;5072486;28;20206;-58
2022/02/12 00:15:16;;;;;;;9.90;4.73;;;3.10;1.00;;;;;;5070752;28;20209;-58
2022/02/12 00:17:44;;;;;;;7.57;4.23;;;3.30;1.00;;;;;;5075668;28;20698;-58
2022/02/12 00:20:11;;;;;;;13.07;4.87;;;3.30;1.00;;;;;;5074258;28;20750;-59
2022/02/12 00:22:39;;;;;;;10.13;4.70;;;3.30;1.00;;;;;;5073507;28;20249;-57
2022/02/12 00:25:07;;;;;;;11.43;4.37;;;3.30;1.00;;;;;;5052359;28;20435;-58
2022/02/12 00:27:34;;;;;;;11.20;4.53;;;3.20;1.00;;;;;;5079242;28;20210;-60
2022/02/12 00:30:02;;;;;;;7.70;4.10;;;3.10;1.00;;;;;;5072151;28;20206;-56
2022/02/12 00:32:29;;;;;;;10.87;4.27;;;3.20;1.00;;;;;;5078194;28;20231;-59
2022/02/12 00:34:56;;;;;;;8.10;4.63;;;3.00;1.00;;;;;;5070485;28;20269;-59
2022/02/12 00:37:24;;;;;;;10.13;4.70;;;3.20;1.00;;;;;;5075720;28;20293;-59
2022/02/12 00:39:51;;;;;;;11.63;5.07;;;3.20;1.00;;;;;;5051957;28;20543;-58
2022/02/12 00:42:22;;;;;;;8.40;4.17;;;3.10;1.00;;;;;;5073999;28;20213;-59
2022/02/12 00:44:50;;;;;;;14.97;5.20;;;3.20;1.00;;;;;;5058328;28;20234;-60
2022/02/12 00:47:17;;;;;;;6.70;4.13;;;3.10;1.00;;;;;;5057112;28;20242;-59
2022/02/12 00:49:44;;;;;;;10.23;5.23;;;3.10;1.00;;;;;;5069115;28;20204;-57
2022/02/12 00:52:11;;;;;;;10.83;4.97;;;3.00;1.00;;;;;;5076100;28;20649;-57
2022/02/12 00:54:38;;;;;;;8.70;4.57;;;3.00;1.00;;;;;;5047809;28;20250;-55
2022/02/12 00:57:07;;;;;;;11.13;5.03;;;3.10;1.00;;;;;;5054754;28;20203;-59
2022/02/12 00:59:35;;;;;;;17.83;4.63;;;3.10;1.00;;;;;;5059024;28;20196;-59
2022/02/12 01:02:03;;;;;;;16.33;4.93;;;3.30;1.00;;;;;;5058389;28;20744;-58
2022/02/12 01:04:30;;;;;;;10.17;4.63;;;3.20;1.00;;;;;;5072170;28;20745;-58
2022/02/12 01:06:57;;;;;;;13.77;4.30;;;3.10;1.00;;;;;;5074422;28;20203;-58
2022/02/12 01:09:24;;;;;;;11.17;4.47;;;2.90;1.00;;;;;;5072166;28;20226;-58
2022/02/12 01:11:51;;;;;;;11.93;5.23;;;2.90;1.00;;;;;;5056076;28;20569;-59
2022/02/12 01:14:17;;;;;;;11.20;4.70;;;2.80;1.00;;;;;;5075468;28;20219;-59
2022/02/12 01:16:44;;;;;;;12.00;4.53;;;2.70;1.00;;;;;;5072438;28;20200;-58
2022/02/12 01:19:11;;;;;;;9.20;4.97;;;2.70;1.00;;;;;;5075833;28;20235;-57
2022/02/12 01:21:38;;;;;;;12.17;5.20;;;2.60;1.00;;;;;;5074680;28;21262;-57
2022/02/12 01:24:05;;;;;;;12.37;5.73;;;2.60;1.00;;;;;;5073169;28;20351;-58
2022/02/12 01:26:32;;;;;;;9.93;4.93;;;2.60;1.00;;;;;;5073431;28;20202;-58
2022/02/12 01:28:59;;;;;;;9.00;4.80;;;2.50;1.00;;;;;;5062382;28;20187;-59
2022/02/12 01:31:26;;;;;;;14.10;5.43;;;2.50;1.00;;;;;;5078242;28;20634;-59
2022/02/12 01:33:53;;;;;;;12.83;5.40;;;2.50;1.00;;;;;;5061831;28;20658;-60
2022/02/12 01:36:19;;;;;;;9.10;5.13;;;2.50;1.00;;;;;;5081739;28;20203;-60
2022/02/12 01:38:46;;;;;;;8.00;4.90;;;2.50;1.00;;;;;;5075674;28;20206;-58
2022/02/12 01:41:13;;;;;;;11.07;4.70;;;2.50;1.00;;;;;;5077577;28;20229;-59
2022/02/12 01:43:40;;;;;;;12.20;5.20;;;2.60;1.00;;;;;;5073404;28;20292;-59
2022/02/12 01:46:07;;;;;;;10.17;5.00;;;2.60;1.00;;;;;;5081783;28;20216;-61
2022/02/12 01:48:34;;;;;;;10.73;5.43;;;2.50;1.00;;;;;;5084490;28;20693;-61
2022/02/12 01:51:04;;;;;;;7.27;4.50;;;2.50;1.00;;;;;;5059151;28;20246;-60
2022/02/12 01:53:31;;;;;;;12.83;4.50;;;2.40;49.90;;;;;;5079308;28;21932;-59
2022/02/12 01:55:58;;;;;;;10.60;4.70;;;2.50;6.20;;;;;;5073404;28;20196;-57
2022/02/12 01:58:24;;;;;;;10.87;4.03;;;2.40;1.00;;;;;;5076067;28;20269;-59
2022/02/12 02:00:51;;;;;;;9.27;3.67;;;2.40;1.00;;;;;;5060440;28;20199;-60
2022/02/12 02:03:18;;;;;;;10.23;3.83;;;2.50;2.20;;;;;;5059018;28;20740;-60
2022/02/12 02:05:46;;;;;;;8.13;3.53;;;2.50;1.00;;;;;;5073014;28;20231;-60
2022/02/12 02:08:13;;;;;;;9.87;3.80;;;2.50;1.00;;;;;;5077614;28;20198;-60
2022/02/12 02:10:40;;;;;;;10.27;3.93;;;2.60;1.00;;;;;;5061328;28;20818;-60
2022/02/12 02:13:07;;;;;;;13.43;4.20;;;2.70;1.00;;;;;;5076227;28;20235;-58
2022/02/12 02:15:34;;;;;;;7.77;4.03;;;2.70;1.00;;;;;;5077736;28;20296;-59
2022/02/12 02:18:00;;;;;;;8.33;3.83;;;2.70;1.00;;;;;;5061919;28;20707;-60
2022/02/12 02:20:27;;;;;;;7.77;3.57;;;2.60;1.00;;;;;;5076271;28;20194;-59
2022/02/12 02:22:57;;;;;;;6.13;4.00;;;2.50;1.00;;;;;;5057168;28;20555;-59
2022/02/12 02:25:27;;;;;;;7.63;3.30;;;2.40;1.00;;;;;;5077534;28;20303;-60
2022/02/12 02:27:54;;;;;;;7.33;3.50;;;2.30;1.00;;;;;;5078555;28;20213;-58
2022/02/12 02:30:22;;;;;;;8.43;3.37;;;2.40;1.00;;;;;;5058962;28;20209;-60
2022/02/12 02:32:49;;;;;;;9.17;3.47;;;2.50;1.00;;;;;;5078382;28;21641;-58
2022/02/12 02:35:18;;;;;;;8.13;4.30;;;2.60;1.00;;;;;;5078302;28;20657;-57
2022/02/12 02:37:47;;;;;;;9.97;4.73;;;2.60;1.00;;;;;;5073983;28;20207;-57
2022/02/12 02:40:21;;;;;;;7.23;4.03;;;2.50;1.00;;;;;;5076070;28;20222;-59
2022/02/12 02:42:50;;;;;;;8.60;4.30;;;2.50;1.00;;;;;;5075683;28;20263;-56
2022/02/12 02:45:18;;;;;;;10.53;3.87;;;2.30;1.00;;;;;;5061496;28;20211;-58
2022/02/12 02:47:45;;;;;;;13.20;4.20;;;2.50;1.00;;;;;;5076648;28;20219;-57
2022/02/12 02:56:02;;;;;;;10.30;4.40;;;2.20;1.00;;;;;;5075125;28;20234;-58
2022/02/12 02:58:38;;;;;;;10.73;4.03;;;2.40;1.00;;;;;;5077100;28;20695;-58
2022/02/12 03:01:09;;;;;;;10.70;3.83;;;2.50;1.00;;;;;;5058495;28;20709;-57
2022/02/12 03:03:37;;;;;;;11.97;3.90;;;2.20;1.00;;;;;;5077935;28;20601;-60
2022/02/12 03:06:05;;;;;;;9.93;4.43;;;2.30;1.00;;;;;;5079070;28;20249;-58
2022/02/12 03:08:33;;;;;;;12.77;4.60;;;2.40;1.00;;;;;;5076767;28;20624;-58
2022/02/12 03:11:00;;;;;;;10.40;4.33;;;2.50;1.00;;;;;;5074717;28;20685;-55
2022/02/12 03:13:27;;;;;;;9.17;3.83;;;2.50;1.00;;;;;;5058822;28;20719;-56
2022/02/12 03:15:54;;;;;;;10.20;4.23;;;2.50;1.00;;;;;;5079743;28;20218;-58
2022/02/12 03:18:21;;;;;;;8.60;4.40;;;2.40;1.00;;;;;;5073511;28;20267;-56
2022/02/12 03:20:48;;;;;;;12.70;4.67;;;2.30;1.00;;;;;;5074376;28;20293;-58
2022/02/12 03:23:16;;;;;;;10.10;5.67;;;2.20;1.00;;;;;;5075654;28;20764;-56
2022/02/12 03:25:43;;;;;;;11.90;4.60;;;2.40;1.00;;;;;;5076299;28;20608;-58
2022/02/12 03:28:12;;;;;;;11.10;4.40;;;2.50;1.00;;;;;;5077132;28;20322;-55
2022/02/12 03:30:41;;;;;;;12.53;4.23;;;2.20;1.00;;;;;;5077329;28;20675;-56
2022/02/12 03:33:08;;;;;;;13.13;4.43;;;2.40;1.00;;;;;;5078368;28;20611;-58
2022/02/12 03:35:36;;;;;;;10.83;4.70;;;2.20;1.00;;;;;;5076842;28;20378;-59
2022/02/12 03:38:13;;;;;;;11.40;4.00;;;2.10;1.00;;;;;;5076225;28;20669;-54
2022/02/12 03:40:42;;;;;;;10.63;3.63;;;2.00;42.60;;;;;;5075331;28;20666;-58
2022/02/12 03:43:10;;;;;;;9.40;3.60;;;1.90;1.00;;;;;;5055600;28;20302;-57
2022/02/12 03:45:38;;;;;;;9.57;4.50;;;2.20;1.00;;;;;;5078486;28;20297;-55
2022/02/12 03:48:07;;;;;;;10.67;4.00;;;2.10;1.00;;;;;;5074983;28;20257;-56
2022/02/12 03:50:35;;;;;;;11.77;4.57;;;2.10;1.00;;;;;;5074274;28;20789;-56
2022/02/12 03:53:04;;;;;;;9.20;4.63;;;2.20;1.00;;;;;;5074830;28;20672;-56
2022/02/12 03:55:36;;;;;;;8.33;4.20;;;2.20;1.00;;;;;;5071951;28;20675;-56
2022/02/12 03:58:04;;;;;;;8.50;4.60;;;2.20;1.00;;;;;;5075036;28;20264;-55
2022/02/12 04:00:31;;;;;;;7.13;3.60;;;2.10;1.00;;;;;;5074099;28;20227;-57
2022/02/12 04:02:58;;;;;;;8.87;4.27;;;2.20;1.00;;;;;;5061103;28;20301;-56
2022/02/12 04:05:25;;;;;;;13.07;4.17;;;2.40;1.00;;;;;;5056130;28;20266;-57
2022/02/12 04:07:52;;;;;;;7.73;3.97;;;2.20;1.00;;;;;;5074939;28;20227;-56
2022/02/12 04:10:20;;;;;;;11.90;4.37;;;2.00;1.00;;;;;;5073825;28;20222;-57
2022/02/12 04:12:53;;;;;;;13.10;4.20;;;2.20;1.00;;;;;;5055082;28;20194;-56
2022/02/12 04:15:25;;;;;;;9.70;4.50;;;2.20;1.00;;;;;;5078232;28;20279;-57
2022/02/12 04:17:52;;;;;;;8.40;4.07;;;2.30;1.00;;;;;;5075586;28;20687;-57
2022/02/12 04:20:27;;;;;;;10.53;3.97;;;2.30;1.00;;;;;;5078163;28;20218;-56
2022/02/12 04:22:54;;;;;;;11.50;4.13;;;2.20;1.00;;;;;;5076205;28;20840;-56
2022/02/12 04:25:22;;;;;;;11.33;4.13;;;2.30;46.60;;;;;;5084974;28;20695;-57
2022/02/12 04:27:49;;;;;;;8.10;3.80;;;2.40;1.00;;;;;;5086062;28;20302;-57
2022/02/12 04:30:16;;;;;;;16.33;4.53;;;2.40;1.00;;;;;;5085658;28;20202;-57
2022/02/12 04:32:44;;;;;;;11.60;4.63;;;2.50;1.00;;;;;;5089681;28;20926;-54
2022/02/12 04:35:13;;;;;;;12.93;4.33;;;2.40;1.00;;;;;;5083799;28;20614;-57
2022/02/12 04:37:41;;;;;;;6.93;3.87;;;2.40;1.00;;;;;;5082270;28;20402;-58
2022/02/12 04:40:08;;;;;;;8.90;4.03;;;2.40;1.00;;;;;;5085348;28;20285;-59
2022/02/12 04:42:35;;;;;;;9.80;5.33;;;2.40;13.60;;;;;;5088677;28;20207;-55
2022/02/12 04:45:03;;;;;;;8.53;4.13;;;2.40;8.90;;;;;;5084644;28;20694;-55
2022/02/12 04:47:29;;;;;;;6.83;3.90;;;2.50;1.00;;;;;;5081500;28;20275;-55
2022/02/12 04:49:56;;;;;;;12.40;4.27;;;2.50;1.00;;;;;;5085613;28;20296;-56
2022/02/12 04:52:23;;;;;;;14.47;3.37;;;2.40;1.00;;;;;;5088390;28;20590;-55
2022/02/12 04:54:50;;;;;;;9.67;4.30;;;2.40;1.00;;;;;;5067425;28;20244;-57
2022/02/12 04:57:17;;;;;;;13.20;4.03;;;2.50;1.00;;;;;;5087977;28;20209;-57
2022/02/12 04:59:44;;;;;;;9.23;4.00;;;2.40;1.00;;;;;;5080388;28;20721;-57
2022/02/12 05:02:11;;;;;;;13.47;4.40;;;2.40;1.00;;;;;;5086235;28;20663;-55
2022/02/12 05:04:38;;;;;;;12.63;4.10;;;2.30;1.00;;;;;;5086721;28;20223;-56
2022/02/12 05:07:06;;;;;;;14.63;4.33;;;2.20;1.00;;;;;;5083737;28;20190;-57
2022/02/12 05:09:37;;;;;;;13.77;4.63;;;2.20;1.00;;;;;;5080701;28;20223;-56
2022/02/12 05:12:05;;;;;;;13.33;4.40;;;2.20;1.00;;;;;;5076222;28;20198;-56
2022/02/12 05:14:33;;;;;;;8.67;3.90;;;2.20;1.00;;;;;;5066686;28;20206;-56
2022/02/12 05:17:01;;;;;;;10.60;3.77;;;2.10;1.00;;;;;;5067982;28;20241;-55
2022/02/12 05:19:28;;;;;;;8.97;4.30;;;2.10;1.00;;;;;;5086912;28;20556;-57
2022/02/12 05:21:55;;;;;;;9.90;4.37;;;2.00;66.40;;;;;;5084849;28;20201;-57
2022/02/12 05:24:22;;;;;;;7.17;4.57;;;2.10;1.00;;;;;;5060698;28;20337;-56
2022/02/12 05:26:49;;;;;;;12.60;5.10;;;2.10;37.10;;;;;;5072502;28;20874;-56
2022/02/12 05:29:16;;;;;;;13.13;4.60;;;2.10;1.00;;;;;;5074210;28;20191;-56
2022/02/12 05:31:43;;;;;;;7.97;3.83;;;2.00;1.00;;;;;;5073229;28;20313;-56
2022/02/12 05:34:16;;;;;;;9.23;4.37;;;1.90;1.00;;;;;;5076521;28;20198;-58
2022/02/12 05:36:43;;;;;;;14.63;4.73;;;2.00;1.00;;;;;;5074333;28;20227;-57
2022/02/12 05:39:11;;;;;;;11.47;4.60;;;1.90;1.00;;;;;;5071165;28;20611;-57
2022/02/12 05:41:39;;;;;;;11.27;5.13;;;1.80;1.00;;;;;;5069050;28;20220;-58
2022/02/12 05:44:06;;;;;;;10.57;4.03;;;2.00;64.90;;;;;;5072231;28;20198;-56
2022/02/12 05:46:33;;;;;;;11.60;4.60;;;1.90;1.00;;;;;;5058467;28;20214;-56
2022/02/12 05:49:01;;;;;;;17.63;5.10;;;2.00;1.00;;;;;;5055976;28;20314;-56
2022/02/12 05:51:31;;;;;;;11.57;6.67;;;1.90;1.00;;;;;;5073931;28;20218;-54
2022/02/12 05:54:00;;;;;;;9.00;3.97;;;1.90;1.00;;;;;;5074137;28;20206;-57
2022/02/12 05:56:28;;;;;;;10.17;4.10;;;1.80;1.00;;;;;;5072016;28;20793;-57
2022/02/12 05:58:56;;;;;;;7.97;4.40;;;1.60;1.00;;;;;;5071521;28;20275;-56
2022/02/12 06:01:23;;;;;;;10.63;4.80;;;1.50;99.90;;;;;;5069593;28;20217;-57
2022/02/12 06:03:50;;;;;;;10.47;4.23;;;1.60;23.70;;;;;;5073753;28;20301;-57
2022/02/12 06:06:18;;;;;;;10.20;4.20;;;1.70;1.80;;;;;;5073977;28;20242;-58
2022/02/12 06:08:45;;;;;;;14.00;4.23;;;1.40;1.00;;;;;;5058817;28;20199;-57
2022/02/12 06:11:11;;;;;;;7.20;4.10;;;1.50;1.20;;;;;;5056050;28;20191;-58
2022/02/12 06:13:38;;;;;;;16.67;4.40;;;1.30;20.50;;;;;;5077527;28;20226;-58
2022/02/12 06:16:05;;;;;;;11.27;4.63;;;1.40;1.00;;;;;;5076547;28;20329;-59
2022/02/12 06:18:32;;;;;;;6.70;5.03;;;1.40;14.10;;;;;;5084442;28;20206;-57
2022/02/12 06:20:59;;;;;;;11.17;4.40;;;1.40;1.00;;;;;;5081229;28;20204;-57
2022/02/12 06:23:26;;;;;;;8.87;4.30;;;1.20;1.00;;;;;;5083679;28;20230;-57
2022/02/12 06:25:55;;;;;;;12.43;4.70;;;1.40;62.50;;;;;;5064691;28;20215;-55
2022/02/12 06:28:22;;;;;;;7.57;4.03;;;1.50;1.00;;;;;;5085358;28;20199;-56
2022/02/12 06:30:48;;;;;;;11.67;4.27;;;1.50;1.00;;;;;;5088268;28;20225;-57
2022/02/12 06:33:15;;;;;;;10.90;4.57;;;1.30;16.30;;;;;;5086949;28;20229;-58
2022/02/12 06:35:42;;;;;;;18.20;4.53;;;1.40;1.00;;;;;;5081164;28;20199;-57
2022/02/12 06:38:10;;;;;;;16.73;4.40;;;1.40;1.00;;;;;;5086346;28;20228;-58
2022/02/12 06:40:37;;;;;;;8.40;3.77;;;1.50;27.10;;;;;;5084683;28;20298;-56
2022/02/12 06:43:04;;;;;;;8.80;4.03;;;1.50;1.00;;;;;;5083434;28;20249;-55
2022/02/12 06:45:33;;;;;;;11.60;3.67;;;1.50;1.00;;;;;;5082898;28;20225;-55
2022/02/12 06:48:01;;;;;;;14.63;5.00;;;1.50;1.00;;;;;;5085956;28;20198;-56
2022/02/12 06:50:28;;;;;;;19.40;5.73;;;1.50;1.00;;;;;;5082052;28;20580;-55
2022/02/12 06:52:55;;;;;;;10.33;3.80;;;1.60;1.00;;;;;;5080971;28;20214;-58
2022/02/12 06:55:22;;;;;;;8.97;3.30;;;1.60;1.00;;;;;;5083529;28;20210;-56
2022/02/12 06:57:50;;;;;;;10.40;4.17;;;1.50;1.00;;;;;;5082001;28;20309;-56
2022/02/12 07:00:18;;;;;;;11.03;5.13;;;1.50;1.00;;;;;;5080583;28;20237;-57
2022/02/12 07:02:46;;;;;;;6.57;3.80;;;1.60;1.00;;;;;;5067152;28;20210;-57
2022/02/12 07:05:13;;;;;;;11.67;3.47;;;1.60;1.00;;;;;;5063651;28;20211;-57
2022/02/12 07:07:45;;;;;;;10.37;3.60;;;1.50;1.00;;;;;;5078497;28;20203;-56
2022/02/12 07:10:12;;;;;;;6.80;3.33;;;1.50;1.00;;;;;;5079188;28;20281;-61
2022/02/12 07:12:39;;;;;;;12.07;4.00;;;1.50;1.00;;;;;;5066773;28;20286;-58
2022/02/12 07:15:08;;;;;;;8.93;3.70;;;1.50;1.00;;;;;;5077287;28;20199;-56
2022/02/12 07:17:39;;;;;;;12.60;4.17;;;1.40;1.00;;;;;;5077823;28;20198;-58
2022/02/12 07:20:11;;;;;;;10.00;4.33;;;1.50;1.00;;;;;;5073871;28;20206;-56
2022/02/12 07:22:40;;;;;;;8.37;3.80;;;1.50;1.00;;;;;;5078520;28;20292;-55
2022/02/12 07:25:08;;;;;;;13.00;4.17;;;1.60;1.00;;;;;;5060745;28;20552;-56
2022/02/12 07:27:38;;;;;;;7.73;3.60;;;1.60;1.00;;;;;;5079546;28;20202;-58
2022/02/12 07:30:07;;;;;;;8.63;4.40;;;1.50;1.00;;;;;;5074303;28;20200;-55
2022/02/12 07:32:38;;;;;;;9.80;3.13;;;1.60;1.00;;;;;;5080327;28;20194;-56
2022/02/12 07:35:07;;;;;;;10.27;3.47;;;1.60;1.00;;;;;;5084335;28;20257;-56
2022/02/12 07:37:34;;;;;;;13.00;3.90;;;1.60;1.00;;;;;;5078845;28;20210;-56
2022/02/12 07:40:01;;;;;;;8.87;3.77;;;1.70;1.00;;;;;;5079800;28;20301;-57
2022/02/12 07:42:28;;;;;;;7.47;3.57;;;1.50;1.00;;;;;;5076837;28;20206;-56
2022/02/12 07:44:56;;;;;;;11.43;3.93;;;1.60;1.00;;;;;;5072001;28;20211;-57
2022/02/12 07:47:23;;;;;;;7.40;4.07;;;1.60;1.00;;;;;;5072289;28;20202;-55
2022/02/12 07:49:50;;;;;;;11.73;3.93;;;1.90;1.00;;;;;;5074946;28;20426;-57
2022/02/12 07:52:18;;;;;;;8.97;3.53;;;2.00;1.00;;;;;;5077411;28;20259;-58
2022/02/12 07:54:45;;;;;;;9.37;3.73;;;1.90;1.00;;;;;;5071604;28;20252;-56
2022/02/12 07:57:12;;;;;;;7.40;3.90;;;1.80;1.00;;;;;;5073595;28;20252;-57
2022/02/12 07:59:40;;;;;;;6.43;3.70;;;1.90;1.00;;;;;;5072325;28;20226;-56
2022/02/12 08:02:10;;;;;;;8.37;3.50;;;1.90;1.00;;;;;;5060206;28;20199;-57
2022/02/12 08:04:37;;;;;;;10.03;3.87;;;1.90;1.00;;;;;;5060398;28;20203;-56
2022/02/12 08:09:49;;;;;;;9.37;3.50;;;1.90;1.00;;;;;;5074326;28;20222;-58
2022/02/12 08:12:18;;;;;;;8.13;3.10;;;1.80;1.00;;;;;;5074243;28;20427;-58
2022/02/12 08:14:54;;;;;;;6.07;3.40;;;1.90;1.00;;;;;;5075744;28;20214;-55
2022/02/12 08:17:22;;;;;;;7.83;3.83;;;1.80;1.00;;;;;;5055476;28;20206;-58
2022/02/12 08:19:51;;;;;;;11.47;4.40;;;1.90;1.00;;;;;;5071522;28;20198;-55
2022/02/12 08:22:20;;;;;;;7.03;3.70;;;1.90;1.00;;;;;;5067422;28;20210;-56
2022/02/12 08:24:47;;;;;;;6.67;3.80;;;2.00;1.00;;;;;;5064444;28;20230;-58
2022/02/12 08:27:14;;;;;;;7.43;4.33;;;2.10;1.00;;;;;;5069850;28;20245;-57
2022/02/12 08:29:44;;;;;;;10.67;4.07;;;2.00;1.00;;;;;;5049452;28;21591;-57
2022/02/12 08:32:12;;;;;;;15.93;4.10;;;2.20;1.00;;;;;;5068550;28;20194;-57
2022/02/12 08:34:42;;;;;;;8.27;3.83;;;2.30;99.90;;;;;;5070268;28;20277;-54
2022/02/12 08:37:12;;;;;;;8.50;3.70;;;2.80;99.90;;;;;;5073340;28;20202;-55
2022/02/12 08:39:46;;;;;;;7.37;3.50;;;2.60;1.00;;;;;;5070902;28;20218;-56
2022/02/12 08:42:12;;;;;;;10.20;3.53;;;2.50;99.90;;;;;;5069568;28;20636;-59
2022/02/12 08:44:39;;;;;;;8.03;3.87;;;2.90;99.90;;;;;;5070674;28;20284;-56
2022/02/12 08:47:09;;;;;;;7.43;3.70;;;3.00;1.00;;;;;;5074423;28;20207;-57
2022/02/12 08:49:38;;;;;;;9.57;3.63;;;3.00;1.00;;;;;;5057588;28;20406;-57
2022/02/12 08:52:05;;;;;;;7.30;3.40;;;3.50;1.00;;;;;;5057584;28;20199;-56
2022/02/12 08:54:34;;;;;;;7.40;3.40;;;3.80;1.00;;;;;;5075016;28;20206;-55
2022/02/12 08:57:02;;;;;;;8.27;3.30;;;3.50;1.00;;;;;;5074621;28;20680;-57
2022/02/12 08:59:31;;;;;;;7.87;3.27;;;3.70;1.00;;;;;;5073810;28;20208;-55
2022/02/12 09:02:10;;;;;;;7.90;3.70;;;4.00;73.20;;;;;;5073995;28;20198;-55
2022/02/12 09:04:37;;;;;;;9.60;3.53;;;3.50;1.00;;;;;;5072748;28;20651;-55
2022/02/12 09:07:05;;;;;;;6.80;3.17;;;3.70;1.00;;;;;;5076775;28;20755;-56
2022/02/12 09:09:33;;;;;;;9.10;3.63;;;3.70;99.90;;;;;;5068550;28;20231;-56
2022/02/12 09:12:00;;;;;;;9.73;3.57;;;4.10;99.90;;;;;;5075393;28;20283;-57
2022/02/12 09:14:27;;;;;;;7.90;3.10;;;4.20;99.90;;;;;;5069951;28;20220;-55
2022/02/12 09:16:54;;;;;;;10.50;3.60;;;3.80;99.90;;;;;;5066526;28;20305;-56
2022/02/12 09:19:21;;;;;;;6.00;2.57;;;4.10;1.00;;;;;;5071234;28;20204;-55
2022/02/12 09:21:48;;;;;;;4.17;3.10;;;4.00;99.90;;;;;;5078747;28;20215;-57
2022/02/12 09:24:15;;;;;;;7.33;3.00;;;4.10;99.90;;;;;;5066154;28;20358;-56
2022/02/12 09:26:42;;;;;;;11.33;3.53;;;4.20;1.00;;;;;;5082554;28;20520;-57
2022/02/12 09:29:09;;;;;;;5.33;3.00;;;4.50;99.90;;;;;;5083227;28;20244;-57
2022/02/12 09:31:36;;;;;;;6.83;3.00;;;4.90;1.00;;;;;;5082005;28;20627;-56
2022/02/12 09:34:05;;;;;;;12.37;3.40;;;4.70;1.00;;;;;;5059453;28;20343;-57
2022/02/12 09:36:32;;;;;;;10.77;3.40;;;4.90;21.50;;;;;;5081488;28;21137;-57
2022/02/12 09:38:59;;;;;;;8.77;3.53;;;5.10;1.00;;;;;;5079199;28;20214;-57
2022/02/12 09:41:27;;;;;;;6.17;3.10;;;5.20;1.00;;;;;;5065016;28;20209;-57
2022/02/12 09:43:56;;;;;;;11.07;3.23;;;5.30;1.00;;;;;;5078993;28;20682;-57
2022/02/12 09:46:30;;;;;;;6.93;3.23;;;5.20;1.00;;;;;;5079744;28;20235;-56
2022/02/12 09:48:57;;;;;;;8.40;3.73;;;5.10;1.00;;;;;;5081638;28;20210;-57
2022/02/12 09:51:27;;;;;;;7.37;2.90;;;5.70;1.00;;;;;;5077097;28;20210;-54
2022/02/12 09:53:54;;;;;;;10.30;2.97;;;5.20;1.00;;;;;;5083497;28;20263;-56
2022/02/12 09:56:22;;;;;;;5.63;2.97;;;5.00;1.00;;;;;;5077027;28;20223;-56
2022/02/12 09:58:50;;;;;;;7.97;3.93;;;4.80;1.00;;;;;;5079025;28;20244;-54
2022/02/12 10:01:19;;;;;;;7.73;3.23;;;4.70;1.00;;;;;;5075669;28;20659;-56
2022/02/12 10:03:49;;;;;;;10.80;3.83;;;4.60;1.00;;;;;;5079738;28;20208;-56
2022/02/12 10:06:16;;;;;;;10.03;2.90;;;4.40;1.00;;;;;;5075261;28;20217;-57
2022/02/12 10:09:04;;;;;;;10.13;3.00;;;4.40;1.00;;;;;;5084799;28;20712;-56
2022/02/12 10:11:51;;;;;;;6.27;3.10;;;4.20;1.00;;;;;;5079127;28;20195;-55
2022/02/12 10:14:21;;;;;;;9.63;4.00;;;4.10;1.00;;;;;;5083814;28;20222;-57
2022/02/12 10:16:58;;;;;;;7.30;3.10;;;4.20;99.90;;;;;;5084094;28;20208;-57
2022/02/12 10:19:29;;;;;;;10.67;3.20;;;4.30;75.50;;;;;;5077820;28;20199;-56
2022/02/12 10:22:10;;;;;;;6.23;3.10;;;4.20;99.90;;;;;;5060825;28;20196;-56
2022/02/12 10:25:01;;;;;;;8.23;3.07;;;4.50;1.00;;;;;;5073684;28;20236;-56
2022/02/12 10:27:28;;;;;;;7.00;3.73;;;5.10;1.00;;;;;;5061240;28;20222;-54
2022/02/12 10:29:58;;;;;;;6.40;2.90;;;5.40;1.00;;;;;;5048973;28;20755;-56
2022/02/12 10:32:26;;;;;;;6.23;2.90;;;5.30;1.00;;;;;;5060513;28;20222;-56
2022/02/12 10:34:56;;;;;;;6.10;3.23;;;5.50;1.00;;;;;;5083184;28;20220;-57
2022/02/12 10:37:24;;;;;;;6.17;3.07;;;5.80;99.90;;;;;;5080585;28;20202;-56
2022/02/12 10:39:57;;;;;;;9.10;2.90;;;5.20;1.00;;;;;;5079455;28;20326;-56
2022/02/12 10:42:27;;;;;;;6.63;2.97;;;4.90;1.00;;;;;;5085363;28;20221;-56
2022/02/12 10:45:01;;;;;;;11.97;3.30;;;4.90;1.00;;;;;;5081095;28;20202;-56
2022/02/12 10:47:29;;;;;;;5.60;3.20;;;5.10;1.00;;;;;;5080681;28;20699;-56
2022/02/12 10:49:59;;;;;;;6.40;3.03;;;5.30;99.90;;;;;;5072186;28;20608;-57
2022/02/12 10:52:48;;;;;;;10.33;3.37;;;5.70;99.90;;;;;;5083590;28;20204;-56
2022/02/12 10:55:30;;;;;;;9.37;3.40;;;6.00;99.90;;;;;;5065496;28;20194;-56
2022/02/12 10:58:00;;;;;;;6.40;3.27;;;6.10;1.00;;;;;;5083292;28;20198;-57
2022/02/12 11:00:29;;;;;;;10.23;3.20;;;5.80;99.90;;;;;;5081939;28;20235;-57
2022/02/12 11:03:05;;;;;;;9.50;2.77;;;6.10;99.90;;;;;;5078167;28;20585;-56
2022/02/12 11:05:36;;;;;;;6.77;2.97;;;6.20;1.00;;;;;;5063166;28;20215;-56
2022/02/12 11:08:06;;;;;;;5.53;2.57;;;6.30;1.00;;;;;;5083076;28;20209;-57
2022/02/12 11:10:34;;;;;;;13.47;2.70;;;6.40;1.00;;;;;;5064449;28;20313;-57
2022/02/12 11:13:03;;;;;;;5.60;2.70;;;6.70;1.00;;;;;;5080559;28;20291;-56
2022/02/12 11:15:30;;;;;;;9.97;3.30;;;6.70;1.00;;;;;;5078939;28;20202;-57
2022/02/12 11:18:11;;;;;;;8.37;2.63;;;7.10;1.00;;;;;;5082839;28;20437;-58
2022/02/12 11:20:41;;;;;;;7.83;2.43;;;7.20;1.00;;;;;;5064685;28;20694;-58
2022/02/12 11:23:24;;;;;;;6.07;2.60;;;7.20;99.90;;;;;;5083033;28;20686;-57
2022/02/12 11:25:52;;;;;;;7.20;2.53;;;8.00;1.00;;;;;;5057140;28;20308;-57
2022/02/12 11:28:26;;;;;;;10.97;3.10;;;7.80;1.00;;;;;;5081765;28;20198;-56
2022/02/12 11:31:18;;;;;;;8.70;2.70;;;7.60;99.90;;;;;;5079202;28;20234;-56
2022/02/12 11:34:06;;;;;;;6.57;2.70;;;7.30;1.00;;;;;;5073091;28;20254;-57
2022/02/12 11:36:33;;;;;;;6.03;2.40;;;7.40;1.00;;;;;;5083419;28;20206;-58
2022/02/12 11:39:26;;;;;;;8.30;2.80;;;8.00;1.00;;;;;;5084904;28;20210;-56
2022/02/12 11:42:01;;;;;;;10.27;2.80;;;8.20;1.00;;;;;;5082906;28;20546;-57
2022/02/12 11:44:50;;;;;;;9.50;2.70;;;8.20;79.20;;;;;;5083064;28;20209;-57
2022/02/12 11:47:21;;;;;;;9.37;2.70;;;8.20;1.00;;;;;;5067386;28;20241;-57
2022/02/12 11:49:48;;;;;;;5.83;2.30;;;8.40;99.90;;;;;;5082080;28;20245;-55
2022/02/12 11:52:15;;;;;;;7.43;2.50;;;8.60;1.00;;;;;;5082634;28;20206;-56
2022/02/12 11:54:45;;;;;;;5.80;2.13;;;8.40;99.90;;;;;;5062706;28;20645;-58
2022/02/12 11:57:37;;;;;;;6.13;2.03;;;8.30;1.00;;;;;;5082958;28;20213;-57
2022/02/12 12:00:04;;;;;;;4.70;2.30;;;8.20;1.00;;;;;;5062359;28;20214;-57
2022/02/12 12:02:38;;;;;;;8.07;2.13;;;8.10;1.00;;;;;;5077066;28;20316;-57
2022/02/12 12:05:20;;;;;;;6.53;2.33;;;8.00;1.00;;;;;;5081578;28;20218;-57
2022/02/12 12:07:59;;;;;;;4.67;2.20;;;8.10;1.00;;;;;;5080523;28;20719;-57
2022/02/12 12:10:31;;;;;;;7.40;2.00;;;8.00;1.00;;;;;;5065082;28;20282;-57
2022/02/12 12:13:27;;;;;;;7.87;2.60;;;8.20;1.00;;;;;;5082798;28;20215;-57
2022/02/12 12:16:11;;;;;;;7.77;2.23;;;8.30;1.00;;;;;;5066473;28;20282;-55
2022/02/12 12:18:46;;;;;;;4.33;2.23;;;8.40;99.90;;;;;;5064740;28;20228;-57
2022/02/12 12:21:14;;;;;;;7.77;2.30;;;8.40;1.00;;;;;;5082516;28;20300;-58
2022/02/12 12:23:42;;;;;;;6.53;2.20;;;8.50;99.90;;;;;;5083463;28;20695;-57
2022/02/12 12:26:11;;;;;;;6.60;2.13;;;8.60;1.00;;;;;;5079025;28;20199;-56
2022/02/12 12:28:41;;;;;;;5.80;2.30;;;8.50;99.90;;;;;;5082348;28;20285;-55
2022/02/12 12:31:11;;;;;;;4.87;1.77;;;8.60;2.80;;;;;;5080816;28;20582;-56
2022/02/12 12:33:42;;;;;;;3.57;1.70;;;8.70;1.00;;;;;;5084151;28;20199;-58
2022/02/12 12:36:12;;;;;;;7.00;2.00;;;8.60;99.90;;;;;;5079715;28;20277;-56
2022/02/12 12:38:39;;;;;;;2.87;1.40;;;8.50;99.90;;;;;;5080675;28;20195;-57
2022/02/12 12:41:31;;;;;;;5.73;2.53;;;8.60;1.00;;;;;;5078678;28;20204;-57
2022/02/12 12:44:13;;;;;;;4.37;1.90;;;9.10;1.00;;;;;;5082530;28;20201;-58
2022/02/12 12:46:49;;;;;;;3.03;1.47;;;8.70;1.00;;;;;;5065658;28;20741;-58
2022/02/12 12:49:40;;;;;;;2.37;1.53;;;8.90;99.90;;;;;;5081388;28;20200;-57
2022/02/12 12:52:13;;;;;;;5.80;2.40;;;9.00;2.20;;;;;;5066764;28;20194;-57
2022/02/12 12:54:42;;;;;;;6.17;2.73;;;9.00;1.00;;;;;;5071133;28;20286;-57
2022/02/12 12:57:11;;;;;;;6.27;1.93;;;9.20;1.00;;;;;;5052844;28;20221;-59
2022/02/12 12:59:48;;;;;;;7.20;2.67;;;9.20;99.90;;;;;;5066797;28;20822;-57
2022/02/12 13:02:15;;;;;;;9.93;2.47;;;9.50;99.90;;;;;;5068362;28;20295;-59
2022/02/12 13:04:53;;;;;;;5.50;2.10;;;9.30;1.00;;;;;;5072779;28;20199;-57
2022/02/12 13:07:23;;;;;;;4.73;1.87;;;9.10;99.90;;;;;;5071878;28;20689;-57
2022/02/12 13:09:51;;;;;;;8.13;2.37;;;9.10;1.00;;;;;;5068889;28;20667;-63
2022/02/12 13:12:38;;;;;;;4.03;1.90;;;9.20;1.00;;;;;;5057088;28;20289;-63
2022/02/12 13:15:15;;;;;;;6.57;2.00;;;9.80;99.90;;;;;;5068738;28;20319;-58
2022/02/12 13:17:44;;;;;;;3.53;2.07;;;9.70;1.00;;;;;;5075507;28;20662;-61
2022/02/12 13:20:16;;;;;;;5.43;2.13;;;9.80;1.00;;;;;;5070875;28;20227;-61